createdAt,value
2022-10-06T00:01:09.972Z,17.20
2022-10-06T00:03:39.564Z,17.14
2022-10-06T00:06:09.168Z,17.17
2022-10-06T00:08:40.085Z,17.07
2022-10-06T00:11:09.785Z,17.05
2022-10-06T00:13:39.209Z,17.05
2022-10-06T00:16:12.881Z,17.09
2022-10-06T00:18:41.385Z,17.08
2022-10-06T00:21:09.824Z,17.06
2022-10-06T00:23:38.353Z,17.09
2022-10-06T00:26:07.565Z,17.08
2022-10-06T00:28:36.030Z,17.08
2022-10-06T00:31:04.614Z,17.11
2022-10-06T00:33:34.609Z,17.02
2022-10-06T00:36:03.079Z,17.05
2022-10-06T00:38:32.126Z,17.00
2022-10-06T00:41:00.980Z,17.03
2022-10-06T00:43:51.802Z,17.04
2022-10-06T00:46:26.521Z,17.08
2022-10-06T00:49:01.279Z,17.10
2022-10-06T00:51:31.629Z,17.06
2022-10-06T00:54:00.250Z,17.08
2022-10-06T00:56:29.059Z,17.05
2022-10-06T00:58:57.619Z,17.04
2022-10-06T01:01:27.241Z,17.01
2022-10-06T01:04:02.969Z,17.00
2022-10-06T01:06:31.079Z,17.04
2022-10-06T01:08:59.549Z,17.09
2022-10-06T01:11:28.078Z,17.05
2022-10-06T01:13:56.599Z,17.08
2022-10-06T01:16:27.899Z,17.12
2022-10-06T01:18:58.628Z,17.10
2022-10-06T01:21:31.849Z,17.03
2022-10-06T01:24:03.208Z,16.98
2022-10-06T01:26:33.419Z,17.01
2022-10-06T01:29:02.110Z,17.01
2022-10-06T01:31:31.331Z,17.07
2022-10-06T01:33:59.889Z,17.09
2022-10-06T01:36:28.329Z,17.05
2022-10-06T01:38:56.819Z,17.06
2022-10-06T01:41:27.968Z,17.18
2022-10-06T01:43:56.468Z,17.14
2022-10-06T01:46:25.017Z,17.10
2022-10-06T01:48:53.500Z,17.08
2022-10-06T01:51:22.008Z,17.02
2022-10-06T01:53:50.452Z,17.01
2022-10-06T01:56:19.124Z,17.03
2022-10-06T01:58:49.119Z,17.06
2022-10-06T02:01:17.643Z,17.01
2022-10-06T02:03:46.150Z,17.10
2022-10-06T02:06:14.845Z,17.05
2022-10-06T02:08:43.320Z,17.03
2022-10-06T02:11:12.979Z,17.05
2022-10-06T02:13:41.537Z,17.04
2022-10-06T02:16:14.027Z,17.04
2022-10-06T02:18:42.769Z,17.11
2022-10-06T02:21:15.988Z,17.14
2022-10-06T02:23:44.501Z,17.09
2022-10-06T02:26:13.909Z,17.10
2022-10-06T02:28:42.467Z,17.12
2022-10-06T02:31:13.035Z,17.05
2022-10-06T02:33:42.351Z,17.06
2022-10-06T02:36:13.569Z,17.06
2022-10-06T02:38:42.218Z,17.02
2022-10-06T02:41:11.948Z,17.07
2022-10-06T02:43:40.430Z,17.01
2022-10-06T02:46:12.286Z,17.02
2022-10-06T02:48:42.869Z,17.04
2022-10-06T02:51:13.810Z,16.91
2022-10-06T02:53:44.050Z,16.88
2022-10-06T02:56:16.323Z,16.96
2022-10-06T02:58:45.909Z,16.88
2022-10-06T03:01:16.038Z,16.85
2022-10-06T03:03:46.990Z,16.82
2022-10-06T03:06:25.210Z,16.83
2022-10-06T03:08:55.564Z,16.87
2022-10-06T03:11:26.139Z,16.80
2022-10-06T03:13:55.259Z,16.87
2022-10-06T03:16:26.065Z,16.85
2022-10-06T03:18:57.498Z,16.86
2022-10-06T03:21:27.778Z,16.84
2022-10-06T03:23:57.580Z,16.81
2022-10-06T03:26:28.290Z,16.85
2022-10-06T03:28:57.189Z,16.85
2022-10-06T03:31:26.277Z,16.82
2022-10-06T03:33:57.038Z,16.88
2022-10-06T03:36:27.570Z,16.86
2022-10-06T03:38:56.039Z,16.88
2022-10-06T03:41:26.438Z,16.90
2022-10-06T03:43:56.299Z,16.92
2022-10-06T03:46:26.803Z,17.01
2022-10-06T03:48:59.321Z,17.00
2022-10-06T03:51:30.329Z,16.97
2022-10-06T03:53:59.929Z,16.95
2022-10-06T03:56:31.049Z,16.92
2022-10-06T03:59:01.080Z,16.95
2022-10-06T04:01:31.425Z,17.02
2022-10-06T04:04:02.572Z,17.00
2022-10-06T04:06:32.873Z,16.97
2022-10-06T04:09:01.979Z,16.95
2022-10-06T04:11:32.875Z,16.92
2022-10-06T04:14:02.939Z,16.98
2022-10-06T04:16:33.330Z,16.97
2022-10-06T04:19:05.309Z,16.92
2022-10-06T04:21:36.950Z,16.90
2022-10-06T04:24:06.778Z,16.92
2022-10-06T04:26:37.039Z,16.90
2022-10-06T04:29:05.819Z,16.87
2022-10-06T04:31:37.389Z,16.87
2022-10-06T04:34:08.449Z,16.95
2022-10-06T04:36:39.949Z,16.95
2022-10-06T04:39:11.782Z,16.91
2022-10-06T04:41:42.889Z,17.00
2022-10-06T04:44:11.349Z,17.02
2022-10-06T04:46:44.546Z,16.95
2022-10-06T04:49:20.049Z,16.99
2022-10-06T04:51:49.310Z,16.97
2022-10-06T04:54:19.121Z,17.01
2022-10-06T04:56:47.913Z,17.05
2022-10-06T04:59:16.329Z,17.06
2022-10-06T05:01:44.850Z,17.03
2022-10-06T05:04:14.768Z,17.00
2022-10-06T05:06:43.690Z,17.00
2022-10-06T05:09:14.239Z,16.99
2022-10-06T05:11:42.769Z,16.99
2022-10-06T05:14:11.349Z,16.90
2022-10-06T05:16:39.943Z,16.85
2022-10-06T05:19:08.491Z,16.87
2022-10-06T05:21:38.583Z,16.89
2022-10-06T05:24:07.290Z,16.86
2022-10-06T05:26:37.121Z,16.86
2022-10-06T05:29:05.963Z,16.88
2022-10-06T05:31:39.136Z,16.81
2022-10-06T05:34:08.113Z,16.88
2022-10-06T05:36:37.989Z,16.83
2022-10-06T05:39:06.629Z,16.84
2022-10-06T05:41:37.911Z,16.85
2022-10-06T05:44:06.469Z,16.89
2022-10-06T05:46:35.229Z,16.89
2022-10-06T05:49:05.334Z,16.97
2022-10-06T05:51:35.288Z,16.97
2022-10-06T05:54:05.309Z,16.99
2022-10-06T05:56:35.261Z,17.01
2022-10-06T05:59:04.190Z,17.04
2022-10-06T06:01:35.187Z,16.98
2022-10-06T06:04:05.282Z,16.99
2022-10-06T06:06:36.129Z,17.01
2022-10-06T06:09:08.239Z,17.06
2022-10-06T06:11:38.549Z,17.01
2022-10-06T06:14:08.505Z,17.00
2022-10-06T06:16:39.023Z,16.88
2022-10-06T06:19:09.451Z,17.04
2022-10-06T06:21:37.989Z,16.90
2022-10-06T06:24:08.449Z,16.77
2022-10-06T06:26:38.733Z,16.76
2022-10-06T06:29:07.730Z,16.75
2022-10-06T06:31:37.797Z,16.74
2022-10-06T06:34:07.909Z,16.73
2022-10-06T06:36:41.045Z,16.80
2022-10-06T06:39:12.799Z,16.75
2022-10-06T06:41:42.870Z,16.96
2022-10-06T06:44:12.730Z,17.05
2022-10-06T06:46:43.587Z,17.05
2022-10-06T06:49:12.378Z,16.95
2022-10-06T06:51:42.690Z,16.89
2022-10-06T06:54:13.343Z,16.87
2022-10-06T06:56:42.669Z,16.94
2022-10-06T06:59:12.129Z,16.91
2022-10-06T07:01:44.657Z,17.05
2022-10-06T07:04:14.420Z,17.01
2022-10-06T07:06:57.268Z,16.94
2022-10-06T07:09:29.071Z,16.90
2022-10-06T07:11:57.612Z,16.86
2022-10-06T07:14:26.109Z,16.94
2022-10-06T07:17:11.889Z,16.94
2022-10-06T07:19:57.631Z,16.92
2022-10-06T07:22:47.229Z,16.86
2022-10-06T07:25:25.723Z,16.84
2022-10-06T07:27:55.215Z,16.81
2022-10-06T07:30:26.168Z,16.84
2022-10-06T07:32:55.150Z,16.83
2022-10-06T07:35:24.833Z,16.87
2022-10-06T07:37:54.548Z,16.84
2022-10-06T07:40:24.612Z,16.87
2022-10-06T07:42:53.209Z,16.90
2022-10-06T07:45:42.674Z,16.88
2022-10-06T07:48:14.818Z,16.90
2022-10-06T07:50:44.391Z,16.90
2022-10-06T07:53:13.326Z,16.88
2022-10-06T07:55:45.422Z,16.92
2022-10-06T07:58:15.154Z,16.90
2022-10-06T08:00:44.240Z,16.94
2022-10-06T08:03:15.225Z,16.95
2022-10-06T08:05:43.689Z,16.96
2022-10-06T08:08:12.222Z,16.99
2022-10-06T08:10:41.189Z,16.99
2022-10-06T08:13:11.750Z,16.98
2022-10-06T08:16:12.787Z,17.00
2022-10-06T08:18:46.443Z,17.06
2022-10-06T08:21:17.489Z,17.10
2022-10-06T08:23:47.159Z,17.12
2022-10-06T08:26:16.958Z,17.37
2022-10-06T08:28:48.994Z,17.44
2022-10-06T08:31:19.129Z,17.52
2022-10-06T08:33:48.229Z,17.58
2022-10-06T08:36:19.436Z,17.66
2022-10-06T08:38:50.469Z,17.66
2022-10-06T08:41:24.109Z,17.75
2022-10-06T08:44:00.841Z,17.77
2022-10-06T08:46:36.429Z,17.83
2022-10-06T08:49:05.929Z,17.87
2022-10-06T08:51:54.169Z,17.89
2022-10-06T08:54:31.030Z,17.95
2022-10-06T08:57:05.582Z,17.95
2022-10-06T08:59:37.199Z,17.95
2022-10-06T09:02:22.572Z,17.96
2022-10-06T09:04:51.430Z,17.97
2022-10-06T09:07:26.569Z,18.01
2022-10-06T09:10:07.996Z,18.02
2022-10-06T09:12:42.399Z,18.08
2022-10-06T09:15:25.029Z,18.09
2022-10-06T09:18:00.611Z,18.10
2022-10-06T09:20:34.159Z,18.21
2022-10-06T09:23:05.029Z,18.23
2022-10-06T09:25:35.249Z,18.26
2022-10-06T09:28:06.111Z,18.36
2022-10-06T09:30:36.019Z,18.39
2022-10-06T09:33:07.299Z,18.41
2022-10-06T09:35:36.540Z,18.45
2022-10-06T09:38:09.041Z,18.49
2022-10-06T09:40:40.491Z,18.58
2022-10-06T09:43:21.539Z,18.58
2022-10-06T09:45:51.889Z,18.67
2022-10-06T09:48:25.192Z,18.70
2022-10-06T09:51:15.431Z,18.77
2022-10-06T09:53:44.531Z,18.79
2022-10-06T09:56:19.030Z,18.87
2022-10-06T09:58:58.039Z,18.86
2022-10-06T10:01:30.054Z,18.86
2022-10-06T10:04:19.522Z,18.84
2022-10-06T10:06:50.005Z,18.87
2022-10-06T10:09:29.006Z,18.89
2022-10-06T10:12:32.844Z,18.93
2022-10-06T10:15:06.635Z,18.93
2022-10-06T10:18:00.265Z,18.98
2022-10-06T10:20:39.734Z,18.93
2022-10-06T10:23:30.146Z,18.96
2022-10-06T10:26:22.438Z,18.97
2022-10-06T10:29:11.174Z,18.95
2022-10-06T10:31:51.425Z,18.94
2022-10-06T10:34:36.237Z,18.95
2022-10-06T10:37:12.405Z,18.95
2022-10-06T10:39:45.114Z,18.96
2022-10-06T10:42:19.174Z,19.00
2022-10-06T10:44:54.641Z,19.00
2022-10-06T10:47:27.015Z,19.00
2022-10-06T10:50:04.084Z,19.00
2022-10-06T10:52:38.295Z,19.01
2022-10-06T10:55:19.945Z,19.01
2022-10-06T10:57:50.475Z,19.03
2022-10-06T11:00:23.055Z,19.05
2022-10-06T11:02:53.865Z,19.05
2022-10-06T11:05:37.784Z,19.08
2022-10-06T11:08:13.464Z,19.06
2022-10-06T11:10:48.244Z,19.08
2022-10-06T11:13:24.365Z,19.09
2022-10-06T11:16:07.236Z,19.10
2022-10-06T11:18:47.355Z,19.08
2022-10-06T11:21:23.243Z,19.11
2022-10-06T11:23:57.244Z,19.11
2022-10-06T11:26:52.370Z,19.11
2022-10-06T11:29:34.725Z,19.06
2022-10-06T11:32:15.844Z,19.06
2022-10-06T11:34:45.805Z,19.05
2022-10-06T11:37:26.384Z,19.07
2022-10-06T11:40:02.504Z,19.09
2022-10-06T11:42:40.484Z,19.10
2022-10-06T11:45:14.046Z,19.10
2022-10-06T11:48:03.724Z,19.14
2022-10-06T11:50:36.684Z,19.18
2022-10-06T11:53:07.754Z,19.21
2022-10-06T11:55:36.174Z,19.28
2022-10-06T11:58:40.880Z,19.35
2022-10-06T12:01:06.384Z,19.37
2022-10-06T12:03:46.964Z,19.40
2022-10-06T12:06:52.244Z,19.45
2022-10-06T12:09:33.435Z,19.46
2022-10-06T12:12:03.076Z,19.48
2022-10-06T12:16:32.518Z,19.51
2022-10-06T12:17:35.054Z,19.52
2022-10-06T12:20:16.549Z,19.51
2022-10-06T12:22:50.423Z,19.47
2022-10-06T12:25:28.185Z,19.49
2022-10-06T12:28:11.035Z,19.52
2022-10-06T12:30:54.308Z,19.53
2022-10-06T12:33:38.167Z,19.55
2022-10-06T12:36:17.084Z,19.56
2022-10-06T12:39:02.460Z,19.63
2022-10-06T12:41:58.305Z,19.66
2022-10-06T12:44:30.886Z,19.66
2022-10-06T12:47:04.203Z,19.71
2022-10-06T12:49:43.374Z,19.73
2022-10-06T12:52:28.488Z,19.74
2022-10-06T12:55:08.654Z,19.75
2022-10-06T12:57:48.485Z,19.75
2022-10-06T13:00:34.855Z,19.76
2022-10-06T13:03:06.453Z,19.74
2022-10-06T13:05:36.230Z,19.78
2022-10-06T13:08:06.703Z,19.80
2022-10-06T13:10:35.513Z,19.82
2022-10-06T13:13:23.966Z,19.83
2022-10-06T13:15:56.065Z,19.86
2022-10-06T13:18:25.084Z,19.87
2022-10-06T13:20:55.104Z,19.86
2022-10-06T13:23:27.453Z,19.82
2022-10-06T13:25:58.989Z,19.79
2022-10-06T13:28:47.724Z,19.80
2022-10-06T13:31:22.218Z,19.78
2022-10-06T13:33:55.578Z,19.81
2022-10-06T13:36:24.434Z,19.86
2022-10-06T13:38:53.511Z,19.93
2022-10-06T13:41:28.052Z,20.00
2022-10-06T13:44:01.564Z,20.06
2022-10-06T13:46:33.567Z,20.14
2022-10-06T13:49:04.987Z,20.20
2022-10-06T13:51:34.456Z,20.27
2022-10-06T13:54:21.994Z,20.34
2022-10-06T13:56:50.525Z,20.41
2022-10-06T13:59:37.305Z,20.41
2022-10-06T14:02:32.636Z,20.44
2022-10-06T14:05:23.781Z,20.47
2022-10-06T14:07:52.819Z,20.50
2022-10-06T14:13:02.140Z,20.40
2022-10-06T14:15:39.511Z,20.38
2022-10-06T14:18:08.089Z,20.40
2022-10-06T14:20:42.737Z,20.39
2022-10-06T14:23:40.633Z,20.36
2022-10-06T14:26:11.287Z,20.29
2022-10-06T14:28:40.309Z,20.28
2022-10-06T14:31:14.460Z,20.26
2022-10-06T14:33:43.703Z,20.23
2022-10-06T14:36:21.853Z,20.20
2022-10-06T14:38:52.363Z,20.22
2022-10-06T14:41:24.972Z,20.25
2022-10-06T14:43:57.145Z,20.23
2022-10-06T14:46:27.091Z,20.23
2022-10-06T14:48:56.132Z,20.23
2022-10-06T14:51:26.474Z,20.25
2022-10-06T14:53:56.755Z,20.28
2022-10-06T14:56:27.388Z,20.28
2022-10-06T14:58:55.934Z,20.26
2022-10-06T15:01:28.934Z,20.25
2022-10-06T15:04:00.241Z,20.27
2022-10-06T15:06:46.243Z,20.36
2022-10-06T15:09:14.303Z,20.44
2022-10-06T15:11:42.954Z,20.50
2022-10-06T15:14:11.793Z,20.57
2022-10-06T15:16:43.914Z,20.62
2022-10-06T15:19:13.064Z,20.64
2022-10-06T15:21:45.513Z,20.62
2022-10-06T15:24:16.026Z,20.52
2022-10-06T15:27:02.234Z,20.32
2022-10-06T15:29:30.714Z,20.22
2022-10-06T15:32:00.575Z,20.27
2022-10-06T15:34:30.774Z,20.22
2022-10-06T15:36:59.594Z,20.13
2022-10-06T15:39:29.644Z,20.03
2022-10-06T15:41:58.796Z,20.00
2022-10-06T15:44:27.905Z,19.96
2022-10-06T15:46:57.540Z,19.97
2022-10-06T15:49:30.049Z,19.96
2022-10-06T15:52:02.709Z,19.90
2022-10-06T15:54:33.949Z,19.86
2022-10-06T15:57:04.434Z,19.84
2022-10-06T15:59:34.294Z,19.86
2022-10-06T16:02:05.190Z,19.90
2022-10-06T16:04:48.853Z,19.96
2022-10-06T16:07:19.125Z,20.17
2022-10-06T16:09:51.092Z,20.37
2022-10-06T16:12:22.096Z,20.60
2022-10-06T16:14:50.807Z,20.92
2022-10-06T16:17:20.046Z,21.14
2022-10-06T16:19:50.005Z,21.22
2022-10-06T16:22:22.036Z,20.92
2022-10-06T16:24:51.524Z,20.68
2022-10-06T16:27:19.907Z,20.69
2022-10-06T16:29:48.356Z,20.82
2022-10-06T16:32:17.523Z,20.51
2022-10-06T16:34:50.518Z,20.33
2022-10-06T16:37:20.515Z,21.06
2022-10-06T16:39:48.930Z,21.75
2022-10-06T16:42:18.244Z,21.44
2022-10-06T16:44:46.626Z,21.11
2022-10-06T16:47:14.966Z,20.76
2022-10-06T16:49:43.805Z,20.57
2022-10-06T16:52:12.204Z,20.41
2022-10-06T16:54:42.024Z,20.34
2022-10-06T16:57:10.464Z,20.22
2022-10-06T16:59:42.057Z,20.17
2022-10-06T17:02:12.928Z,20.13
2022-10-06T17:04:42.075Z,20.08
2022-10-06T17:07:41.409Z,20.02
2022-10-06T17:10:20.631Z,19.96
2022-10-06T17:13:39.045Z,19.91
2022-10-06T17:16:09.975Z,19.87
2022-10-06T17:18:39.089Z,19.90
2022-10-06T17:21:32.501Z,19.84
2022-10-06T17:24:01.665Z,19.80
2022-10-06T17:26:33.090Z,19.79
2022-10-06T17:29:04.129Z,19.77
2022-10-06T17:31:35.895Z,19.72
2022-10-06T17:34:08.705Z,19.69
2022-10-06T17:36:38.224Z,19.70
2022-10-06T17:39:08.074Z,19.67
2022-10-06T17:41:40.424Z,19.65
2022-10-06T17:44:10.969Z,19.64
2022-10-06T17:46:41.055Z,19.62
2022-10-06T17:49:10.965Z,19.66
2022-10-06T17:51:41.936Z,19.67
2022-10-06T17:54:16.272Z,19.65
2022-10-06T17:56:47.425Z,19.64
2022-10-06T17:59:17.926Z,19.60
2022-10-06T18:01:46.614Z,19.58
2022-10-06T18:04:16.856Z,19.53
2022-10-06T18:06:47.509Z,19.50
2022-10-06T18:09:16.604Z,19.50
2022-10-06T18:11:48.411Z,19.47
2022-10-06T18:14:18.314Z,19.44
2022-10-06T18:16:52.112Z,19.41
2022-10-06T18:19:26.649Z,19.39
2022-10-06T18:21:56.662Z,19.36
2022-10-06T18:24:27.536Z,19.32
2022-10-06T18:27:00.195Z,19.29
2022-10-06T18:29:31.532Z,19.26
2022-10-06T18:32:36.030Z,19.20
2022-10-06T18:37:37.437Z,19.16
2022-10-06T18:40:08.883Z,19.14
2022-10-06T18:42:39.202Z,19.10
2022-10-06T18:45:26.881Z,19.06
2022-10-06T18:48:12.875Z,19.04
2022-10-06T18:50:41.368Z,19.02
2022-10-06T18:53:09.805Z,18.99
2022-10-06T18:55:38.318Z,18.95
2022-10-06T18:58:08.154Z,18.95
2022-10-06T19:00:36.544Z,18.93
2022-10-06T19:03:05.464Z,18.89
2022-10-06T19:05:35.315Z,18.90
2022-10-06T19:08:04.745Z,18.85
2022-10-06T19:10:55.624Z,18.83
2022-10-06T19:13:25.504Z,18.80
2022-10-06T19:15:54.605Z,18.78
2022-10-06T19:18:23.024Z,18.77
2022-10-06T19:20:54.324Z,18.75
2022-10-06T19:23:22.726Z,18.73
2022-10-06T19:26:00.032Z,18.71
2022-10-06T19:28:30.591Z,18.71
2022-10-06T19:31:00.619Z,18.72
2022-10-06T19:33:29.936Z,18.70
2022-10-06T19:35:59.455Z,18.67
2022-10-06T19:38:29.405Z,18.69
2022-10-06T19:41:18.905Z,18.65
2022-10-06T19:43:47.695Z,18.61
2022-10-06T19:46:16.219Z,18.59
2022-10-06T19:48:44.584Z,18.64
2022-10-06T19:51:15.355Z,18.63
2022-10-06T19:53:51.594Z,18.63
2022-10-06T19:56:23.545Z,18.58
2022-10-06T19:58:53.928Z,18.62
2022-10-06T20:01:22.390Z,18.64
2022-10-06T20:03:50.919Z,18.65
2022-10-06T20:06:28.949Z,18.64
2022-10-06T20:09:09.055Z,18.65
2022-10-06T20:11:48.529Z,18.63
2022-10-06T20:14:21.360Z,18.59
2022-10-06T20:16:59.769Z,18.51
2022-10-06T20:19:28.479Z,18.47
2022-10-06T20:22:28.149Z,18.46
2022-10-06T20:24:59.820Z,18.45
2022-10-06T20:27:30.361Z,18.45
2022-10-06T20:30:05.764Z,18.43
2022-10-06T20:32:43.129Z,18.44
2022-10-06T20:35:14.446Z,18.42
2022-10-06T20:37:46.307Z,18.44
2022-10-06T20:40:33.801Z,18.40
2022-10-06T20:43:03.000Z,18.39
2022-10-06T20:45:34.663Z,18.38
2022-10-06T20:48:03.389Z,18.35
2022-10-06T20:50:32.250Z,18.37
2022-10-06T20:53:01.070Z,18.39
2022-10-06T20:55:29.789Z,18.41
2022-10-06T20:57:58.529Z,18.44
2022-10-06T21:04:26.308Z,18.47
2022-10-06T21:07:32.450Z,18.47
2022-10-06T21:10:30.389Z,18.45
2022-10-06T21:23:59.138Z,18.45
2022-10-06T21:26:57.319Z,18.43
2022-10-06T21:33:44.548Z,18.40
2022-10-06T21:37:07.189Z,18.38
2022-10-06T21:44:34.558Z,18.41
2022-10-06T21:48:05.039Z,18.41
2022-10-06T21:55:17.469Z,18.36
2022-10-06T22:00:57.926Z,18.37
2022-10-06T22:03:33.708Z,18.36
2022-10-06T22:06:08.059Z,18.35
2022-10-06T22:08:38.691Z,18.32
2022-10-06T22:11:11.678Z,18.32
2022-10-06T22:13:41.828Z,18.34
2022-10-06T22:16:13.953Z,18.35
2022-10-06T22:18:46.030Z,18.34
2022-10-06T22:21:16.683Z,18.33
2022-10-06T22:23:47.128Z,18.35
2022-10-06T22:26:17.618Z,18.32
2022-10-06T22:28:47.528Z,18.32
2022-10-06T22:31:25.826Z,18.30
2022-10-06T22:33:56.553Z,18.30
2022-10-06T22:36:26.530Z,18.30
2022-10-06T22:38:56.487Z,18.30
2022-10-06T22:41:25.747Z,18.24
2022-10-06T22:43:57.788Z,18.26
2022-10-06T22:46:29.492Z,18.31
2022-10-06T22:48:59.857Z,18.25
2022-10-06T22:51:28.677Z,18.29
2022-10-06T22:53:59.467Z,18.29
2022-10-06T22:56:29.107Z,18.25
2022-10-06T22:59:00.176Z,18.29
2022-10-06T23:01:31.623Z,18.28
2022-10-06T23:04:00.450Z,18.24
2022-10-06T23:06:31.577Z,18.26
2022-10-06T23:09:00.577Z,18.22
2022-10-06T23:11:29.578Z,18.20
2022-10-06T23:13:58.710Z,18.19
2022-10-06T23:16:27.351Z,18.19
2022-10-06T23:18:59.646Z,18.22
2022-10-06T23:21:29.138Z,18.23
2022-10-06T23:24:00.657Z,18.21
2022-10-06T23:26:33.696Z,18.20
2022-10-06T23:29:04.397Z,18.23
2022-10-06T23:31:33.005Z,18.23
2022-10-06T23:34:05.917Z,18.25
2022-10-06T23:36:34.397Z,18.23
2022-10-06T23:39:03.117Z,18.19
2022-10-06T23:41:32.366Z,18.22
2022-10-06T23:44:00.997Z,18.18
2022-10-06T23:46:29.598Z,18.16
2022-10-06T23:48:58.136Z,18.19
2022-10-06T23:51:28.156Z,18.18
2022-10-06T23:53:56.783Z,18.17
2022-10-06T23:56:25.707Z,18.17
2022-10-06T23:58:54.328Z,18.18
